createdAt,value
2019-02-11T00:02:06.043Z,59.70
2019-02-11T00:07:12.372Z,59.80
2019-02-11T00:12:19.008Z,59.80
2019-02-11T00:17:24.793Z,59.90
2019-02-11T00:22:30.493Z,60.00
2019-02-11T00:27:36.472Z,60.00
2019-02-11T00:32:45.304Z,59.90
2019-02-11T00:37:51.296Z,60.00
2019-02-11T00:42:57.745Z,60.00
2019-02-11T00:48:03.992Z,60.10
2019-02-11T00:53:10.467Z,60.20
2019-02-11T00:58:19.017Z,60.20
2019-02-11T01:03:25.777Z,60.40
2019-02-11T01:08:34.008Z,60.20
2019-02-11T01:13:40.445Z,60.20
2019-02-11T01:18:47.224Z,60.30
2019-02-11T01:24:08.573Z,60.30
2019-02-11T01:29:14.545Z,60.30
2019-02-11T01:34:20.356Z,60.40
2019-02-11T01:39:27.217Z,60.40
2019-02-11T01:44:34.456Z,60.50
2019-02-11T01:49:41.101Z,60.50
2019-02-11T01:54:46.498Z,60.70
2019-02-11T01:59:52.445Z,60.60
2019-02-11T02:05:01.080Z,60.70
2019-02-11T02:10:07.953Z,60.80
2019-02-11T02:15:14.706Z,60.80
2019-02-11T02:20:20.815Z,60.80
2019-02-11T02:25:26.089Z,60.70
2019-02-11T02:30:32.469Z,60.70
2019-02-11T02:35:40.075Z,60.80
2019-02-11T02:40:47.772Z,60.70
2019-02-11T02:45:53.100Z,60.70
2019-02-11T02:51:00.153Z,60.70
2019-02-11T02:56:06.084Z,60.70
2019-02-11T03:01:13.006Z,60.60
2019-02-11T03:06:18.600Z,60.80
2019-02-11T03:11:25.608Z,60.80
2019-02-11T03:16:32.088Z,60.90
2019-02-11T03:21:38.421Z,60.80
2019-02-11T03:26:44.437Z,60.80
2019-02-11T03:31:49.992Z,60.90
2019-02-11T03:36:55.877Z,60.90
2019-02-11T03:42:01.874Z,60.90
2019-02-11T03:47:07.786Z,60.90
2019-02-11T03:52:14.904Z,61.00
2019-02-11T03:57:20.375Z,61.00
2019-02-11T04:02:28.549Z,61.10
2019-02-11T04:07:35.362Z,61.10
2019-02-11T04:12:40.833Z,61.10
2019-02-11T04:17:48.287Z,61.10
2019-02-11T04:22:55.071Z,61.10
2019-02-11T04:28:03.440Z,61.10
2019-02-11T04:33:09.811Z,61.10
2019-02-11T04:38:15.886Z,61.10
2019-02-11T04:43:23.162Z,61.00
2019-02-11T04:48:28.866Z,61.20
2019-02-11T04:53:35.174Z,61.10
2019-02-11T04:58:53.490Z,61.10
2019-02-11T05:04:00.908Z,61.20
2019-02-11T05:09:07.885Z,61.20
2019-02-11T05:14:14.010Z,61.20
2019-02-11T05:19:19.956Z,61.20
2019-02-11T05:24:27.402Z,61.20
2019-02-11T05:29:33.321Z,61.20
2019-02-11T05:34:39.242Z,61.30
2019-02-11T05:39:46.009Z,61.20
2019-02-11T05:44:54.035Z,61.10
2019-02-11T05:49:58.565Z,61.10
2019-02-11T05:55:03.440Z,61.10
2019-02-11T06:00:11.363Z,61.10
2019-02-11T06:05:18.004Z,61.10
2019-02-11T06:10:23.726Z,61.10
2019-02-11T06:15:29.423Z,61.10
2019-02-11T06:20:35.075Z,61.10
2019-02-11T06:25:41.318Z,61.00
2019-02-11T06:30:48.245Z,61.10
2019-02-11T06:35:54.396Z,61.10
2019-02-11T06:40:59.694Z,61.10
2019-02-11T06:46:05.576Z,61.20
2019-02-11T06:51:11.092Z,61.10
2019-02-11T06:56:18.533Z,61.00
2019-02-11T07:01:24.699Z,61.10
2019-02-11T07:06:33.021Z,61.90
2019-02-11T07:11:38.684Z,61.10
2019-02-11T07:16:45.502Z,61.10
2019-02-11T07:21:51.118Z,61.20
2019-02-11T07:26:56.954Z,61.10
2019-02-11T07:32:02.984Z,61.10
2019-02-11T07:37:08.966Z,61.30
2019-02-11T07:42:24.992Z,61.10
2019-02-11T07:47:31.200Z,61.10
2019-02-11T07:52:36.838Z,61.10
2019-02-11T07:57:43.149Z,61.20
2019-02-11T08:02:48.264Z,61.20
2019-02-11T08:07:54.343Z,61.10
2019-02-11T08:13:02.038Z,61.10
2019-02-11T08:18:09.173Z,61.00
2019-02-11T08:23:14.993Z,61.00
2019-02-11T08:28:22.296Z,61.10
2019-02-11T08:33:30.640Z,61.00
2019-02-11T08:38:40.169Z,61.00
2019-02-11T08:43:46.600Z,61.00
2019-02-11T08:48:53.042Z,61.10
2019-02-11T08:53:59.319Z,61.90
2019-02-11T08:59:06.064Z,60.80
2019-02-11T09:04:18.800Z,61.10
2019-02-11T09:09:19.928Z,61.10
2019-02-11T09:14:25.565Z,61.00
2019-02-11T09:19:32.589Z,60.90
2019-02-11T09:24:38.900Z,60.90
2019-02-11T09:29:45.259Z,60.90
2019-02-11T09:34:51.876Z,61.00
2019-02-11T09:39:58.023Z,60.90
2019-02-11T09:45:03.496Z,60.90
2019-02-11T09:50:19.575Z,60.80
2019-02-11T09:55:29.734Z,60.80
2019-02-11T10:00:34.783Z,60.80
2019-02-11T10:05:42.182Z,60.80
2019-02-11T10:10:47.927Z,60.80
2019-02-11T10:15:52.491Z,60.90
2019-02-11T10:20:58.293Z,61.00
2019-02-11T10:26:05.850Z,61.00
2019-02-11T10:31:12.321Z,61.80
2019-02-11T10:36:18.662Z,61.30
2019-02-11T10:41:25.069Z,61.30
2019-02-11T10:46:30.201Z,61.40
2019-02-11T10:51:35.691Z,61.50
2019-02-11T10:56:42.133Z,62.30
2019-02-11T11:01:48.347Z,61.50
2019-02-11T11:06:54.149Z,61.50
2019-02-11T11:12:00.434Z,61.60
2019-02-11T11:17:08.522Z,61.60
2019-02-11T11:22:15.372Z,61.60
2019-02-11T11:27:25.264Z,61.60
2019-02-11T11:32:31.103Z,61.60
2019-02-11T11:37:36.827Z,61.70
2019-02-11T11:42:43.114Z,61.70
2019-02-11T11:47:49.319Z,61.70
2019-02-11T11:52:57.121Z,61.70
2019-02-11T11:58:02.616Z,61.60
2019-02-11T12:03:10.567Z,61.70
2019-02-11T12:08:17.044Z,61.60
2019-02-11T12:13:25.841Z,61.60
2019-02-11T12:18:33.431Z,61.60
2019-02-11T12:23:40.131Z,61.40
2019-02-11T12:28:46.290Z,61.40
2019-02-11T12:33:53.855Z,61.40
2019-02-11T12:39:00.251Z,61.30
2019-02-11T12:44:06.040Z,61.30
2019-02-11T12:49:14.069Z,61.30
2019-02-11T12:54:20.093Z,61.10
2019-02-11T12:59:26.139Z,61.00
2019-02-11T13:04:32.013Z,61.00
2019-02-11T13:09:38.351Z,61.00
2019-02-11T13:14:44.606Z,59.80
2019-02-11T13:20:06.775Z,59.70
2019-02-11T13:24:59.424Z,59.40
2019-02-11T13:30:06.079Z,59.40
2019-02-11T13:35:13.298Z,59.50
2019-02-11T13:40:19.806Z,59.40
2019-02-11T13:45:26.164Z,59.40
2019-02-11T13:50:32.551Z,59.30
2019-02-11T13:55:38.577Z,59.40
2019-02-11T14:00:49.913Z,59.40
2019-02-11T14:05:52.421Z,60.50
2019-02-11T14:10:58.384Z,60.70
2019-02-11T14:16:04.285Z,60.80
2019-02-11T14:21:09.425Z,60.80
2019-02-11T14:26:14.966Z,60.50
2019-02-11T14:31:21.404Z,60.50
2019-02-11T14:36:28.626Z,60.40
2019-02-11T14:41:37.007Z,59.30
2019-02-11T14:46:42.468Z,60.00
2019-02-11T14:51:48.231Z,60.00
2019-02-11T14:56:54.521Z,60.00
2019-02-11T15:01:59.848Z,60.00
2019-02-11T15:07:06.074Z,60.00
2019-02-11T15:12:12.250Z,60.00
2019-02-11T15:17:18.538Z,59.90
2019-02-11T15:22:25.049Z,59.90
2019-02-11T15:27:31.179Z,59.90
2019-02-11T15:32:36.960Z,59.90
2019-02-11T15:37:42.433Z,59.90
2019-02-11T15:42:47.966Z,59.90
2019-02-11T15:47:53.637Z,59.80
2019-02-11T15:52:59.610Z,60.00
2019-02-11T15:58:06.517Z,59.80
2019-02-11T16:03:12.828Z,59.80
2019-02-11T16:08:18.882Z,59.80
2019-02-11T16:13:24.285Z,60.00
2019-02-11T16:18:30.574Z,59.80
2019-02-11T16:23:36.743Z,59.80
2019-02-11T16:28:42.544Z,59.80
2019-02-11T16:33:47.822Z,59.60
2019-02-11T16:38:55.721Z,59.50
2019-02-11T16:44:01.221Z,59.60
2019-02-11T16:49:08.326Z,59.60
2019-02-11T16:54:14.475Z,59.60
2019-02-11T16:59:20.842Z,59.60
2019-02-11T17:04:26.729Z,59.50
2019-02-11T17:09:33.918Z,59.40
2019-02-11T17:14:39.778Z,59.40
2019-02-11T17:19:46.621Z,59.60
2019-02-11T17:24:52.288Z,59.70
2019-02-11T17:29:57.897Z,59.80
2019-02-11T17:35:04.319Z,59.70
2019-02-11T17:40:11.787Z,59.70
2019-02-11T17:45:20.647Z,59.80
2019-02-11T17:50:25.810Z,59.70
2019-02-11T17:55:30.821Z,59.90
2019-02-11T18:00:44.841Z,59.50
2019-02-11T18:05:51.426Z,59.40
2019-02-11T18:11:08.810Z,59.40
2019-02-11T18:16:14.693Z,59.30
2019-02-11T18:21:21.283Z,59.20
2019-02-11T18:26:26.568Z,59.20
2019-02-11T18:31:31.921Z,59.20
2019-02-11T18:36:38.676Z,59.30
2019-02-11T18:41:44.928Z,59.30
2019-02-11T18:46:50.956Z,59.30
2019-02-11T18:51:56.436Z,59.30
2019-02-11T18:57:01.865Z,59.30
2019-02-11T19:02:08.266Z,59.20
2019-02-11T19:07:13.418Z,59.20
2019-02-11T19:12:20.395Z,59.20
2019-02-11T19:17:25.686Z,59.20
2019-02-11T19:22:32.001Z,59.20
2019-02-11T19:27:37.515Z,59.20
2019-02-11T19:32:43.756Z,59.20
2019-02-11T19:37:50.172Z,59.20
2019-02-11T19:42:56.100Z,59.20
2019-02-11T19:48:01.891Z,59.20
2019-02-11T19:53:08.172Z,59.10
2019-02-11T19:58:15.038Z,59.20
2019-02-11T20:03:21.450Z,59.10
2019-02-11T20:08:28.416Z,58.90
2019-02-11T20:13:34.321Z,58.90
2019-02-11T20:18:39.681Z,58.80
2019-02-11T20:23:47.574Z,58.80
2019-02-11T20:28:52.902Z,58.90
2019-02-11T20:33:58.724Z,58.80
2019-02-11T20:39:05.325Z,58.80
2019-02-11T20:44:11.690Z,59.40
2019-02-11T20:49:16.707Z,58.70
2019-02-11T20:54:22.843Z,58.70
2019-02-11T20:59:28.848Z,58.60
2019-02-11T21:04:34.763Z,58.50
2019-02-11T21:09:40.112Z,58.50
2019-02-11T21:14:48.151Z,58.60
2019-02-11T21:19:53.564Z,58.50
2019-02-11T21:24:59.835Z,58.60
2019-02-11T21:30:06.627Z,58.60
2019-02-11T21:35:13.944Z,58.60
2019-02-11T21:40:20.839Z,58.50
2019-02-11T21:45:28.571Z,58.50
2019-02-11T21:50:34.808Z,58.60
2019-02-11T21:55:41.820Z,58.60
2019-02-11T22:00:47.869Z,58.60
2019-02-11T22:05:53.789Z,58.50
2019-02-11T22:10:59.133Z,58.40
2019-02-11T22:16:05.293Z,58.40
2019-02-11T22:21:11.069Z,58.40
2019-02-11T22:26:16.592Z,58.40
2019-02-11T22:31:22.552Z,58.40
2019-02-11T22:36:28.202Z,58.50
2019-02-11T22:41:33.608Z,58.50
2019-02-11T22:46:39.895Z,58.60
2019-02-11T22:51:45.023Z,58.50
2019-02-11T22:56:51.025Z,58.50
2019-02-11T23:01:56.550Z,58.40
2019-02-11T23:07:02.351Z,58.40
2019-02-11T23:12:08.106Z,58.40
2019-02-11T23:17:14.497Z,58.50
2019-02-11T23:22:19.952Z,58.40
2019-02-11T23:27:25.975Z,58.50
2019-02-11T23:32:31.890Z,58.40
2019-02-11T23:37:38.606Z,58.60
2019-02-11T23:42:44.601Z,58.60
2019-02-11T23:47:50.326Z,58.50
2019-02-11T23:52:56.305Z,58.60
2019-02-11T23:58:02.701Z,58.70
